sensor_id;sensor_type;location;lat;lon;timestamp;P1;durP1;ratioP1;P2;durP2;ratioP2
9108;SDS011;4590;51.462;6.692;2022-10-31T00:01:19;12.07;;;6.35;;
9108;SDS011;4590;51.462;6.692;2022-10-31T00:03:50;11.02;;;6.00;;
9108;SDS011;4590;51.462;6.692;2022-10-31T00:06:15;12.53;;;5.97;;
9108;SDS011;4590;51.462;6.692;2022-10-31T00:08:47;10.13;;;6.90;;
9108;SDS011;4590;51.462;6.692;2022-10-31T00:11:17;14.50;;;6.80;;
9108;SDS011;4590;51.462;6.692;2022-10-31T00:13:42;9.03;;;6.03;;
9108;SDS011;4590;51.462;6.692;2022-10-31T00:16:15;10.37;;;5.77;;
9108;SDS011;4590;51.462;6.692;2022-10-31T00:18:42;8.27;;;5.50;;
9108;SDS011;4590;51.462;6.692;2022-10-31T00:21:07;8.85;;;5.60;;
9108;SDS011;4590;51.462;6.692;2022-10-31T00:23:33;9.47;;;5.80;;
9108;SDS011;4590;51.462;6.692;2022-10-31T00:26:01;8.50;;;5.63;;
9108;SDS011;4590;51.462;6.692;2022-10-31T00:28:28;11.63;;;5.97;;
9108;SDS011;4590;51.462;6.692;2022-10-31T00:30:57;10.02;;;6.18;;
9108;SDS011;4590;51.462;6.692;2022-10-31T00:33:23;11.48;;;6.07;;
9108;SDS011;4590;51.462;6.692;2022-10-31T00:35:49;10.13;;;5.97;;
9108;SDS011;4590;51.462;6.692;2022-10-31T00:38:15;11.57;;;5.93;;
9108;SDS011;4590;51.462;6.692;2022-10-31T00:40:40;11.83;;;5.87;;
9108;SDS011;4590;51.462;6.692;2022-10-31T00:43:05;12.10;;;5.67;;
9108;SDS011;4590;51.462;6.692;2022-10-31T00:45:31;9.03;;;5.50;;
9108;SDS011;4590;51.462;6.692;2022-10-31T00:47:56;10.97;;;5.67;;
9108;SDS011;4590;51.462;6.692;2022-10-31T00:50:21;11.97;;;6.23;;
9108;SDS011;4590;51.462;6.692;2022-10-31T00:52:46;10.23;;;5.53;;
9108;SDS011;4590;51.462;6.692;2022-10-31T00:55:12;9.00;;;6.03;;
9108;SDS011;4590;51.462;6.692;2022-10-31T00:57:37;13.73;;;6.47;;
9108;SDS011;4590;51.462;6.692;2022-10-31T01:00:03;10.40;;;5.70;;
9108;SDS011;4590;51.462;6.692;2022-10-31T01:02:28;11.50;;;6.20;;
9108;SDS011;4590;51.462;6.692;2022-10-31T01:04:54;10.57;;;6.13;;
9108;SDS011;4590;51.462;6.692;2022-10-31T01:07:19;8.57;;;5.93;;
9108;SDS011;4590;51.462;6.692;2022-10-31T01:09:44;12.47;;;5.67;;
9108;SDS011;4590;51.462;6.692;2022-10-31T01:12:09;10.33;;;5.70;;
9108;SDS011;4590;51.462;6.692;2022-10-31T01:14:35;10.70;;;5.90;;
9108;SDS011;4590;51.462;6.692;2022-10-31T01:17:00;11.87;;;6.20;;
9108;SDS011;4590;51.462;6.692;2022-10-31T01:19:25;9.80;;;5.77;;
9108;SDS011;4590;51.462;6.692;2022-10-31T01:21:53;10.77;;;5.70;;
9108;SDS011;4590;51.462;6.692;2022-10-31T01:24:19;11.43;;;5.90;;
9108;SDS011;4590;51.462;6.692;2022-10-31T01:26:44;9.03;;;5.53;;
9108;SDS011;4590;51.462;6.692;2022-10-31T01:29:09;11.53;;;6.53;;
9108;SDS011;4590;51.462;6.692;2022-10-31T01:31:36;11.53;;;6.47;;
9108;SDS011;4590;51.462;6.692;2022-10-31T01:34:03;12.27;;;6.88;;
9108;SDS011;4590;51.462;6.692;2022-10-31T01:36:30;13.05;;;6.60;;
9108;SDS011;4590;51.462;6.692;2022-10-31T01:38:58;11.57;;;6.05;;
9108;SDS011;4590;51.462;6.692;2022-10-31T01:41:27;11.50;;;6.47;;
9108;SDS011;4590;51.462;6.692;2022-10-31T01:43:55;11.10;;;6.45;;
9108;SDS011;4590;51.462;6.692;2022-10-31T01:48:57;11.35;;;6.53;;
9108;SDS011;4590;51.462;6.692;2022-10-31T01:51:26;10.48;;;6.03;;
9108;SDS011;4590;51.462;6.692;2022-10-31T01:53:56;9.95;;;6.07;;
9108;SDS011;4590;51.462;6.692;2022-10-31T01:56:26;10.27;;;5.93;;
9108;SDS011;4590;51.462;6.692;2022-10-31T02:01:19;8.93;;;4.63;;
9108;SDS011;4590;51.462;6.692;2022-10-31T02:03:44;8.90;;;5.53;;
9108;SDS011;4590;51.462;6.692;2022-10-31T02:06:21;9.38;;;5.82;;
9108;SDS011;4590;51.462;6.692;2022-10-31T02:08:59;10.85;;;5.45;;
9108;SDS011;4590;51.462;6.692;2022-10-31T02:11:27;8.43;;;5.78;;
9108;SDS011;4590;51.462;6.692;2022-10-31T02:13:54;10.98;;;5.85;;
9108;SDS011;4590;51.462;6.692;2022-10-31T02:16:19;13.23;;;5.70;;
9108;SDS011;4590;51.462;6.692;2022-10-31T02:18:44;11.57;;;5.43;;
9108;SDS011;4590;51.462;6.692;2022-10-31T02:21:22;10.07;;;6.07;;
9108;SDS011;4590;51.462;6.692;2022-10-31T02:24:12;9.43;;;5.63;;
9108;SDS011;4590;51.462;6.692;2022-10-31T02:26:58;9.50;;;5.40;;
9108;SDS011;4590;51.462;6.692;2022-10-31T02:32:41;10.70;;;5.20;;
9108;SDS011;4590;51.462;6.692;2022-10-31T02:35:25;8.98;;;5.10;;
9108;SDS011;4590;51.462;6.692;2022-10-31T02:38:21;10.73;;;6.00;;
9108;SDS011;4590;51.462;6.692;2022-10-31T02:40:59;9.38;;;5.43;;
9108;SDS011;4590;51.462;6.692;2022-10-31T02:43:40;9.10;;;5.75;;
9108;SDS011;4590;51.462;6.692;2022-10-31T02:46:23;10.23;;;5.53;;
9108;SDS011;4590;51.462;6.692;2022-10-31T02:48:58;9.88;;;5.75;;
9108;SDS011;4590;51.462;6.692;2022-10-31T02:51:28;8.40;;;5.68;;
9108;SDS011;4590;51.462;6.692;2022-10-31T02:53:53;10.90;;;6.63;;
9108;SDS011;4590;51.462;6.692;2022-10-31T02:56:19;9.97;;;5.90;;
9108;SDS011;4590;51.462;6.692;2022-10-31T02:58:58;9.35;;;5.85;;
9108;SDS011;4590;51.462;6.692;2022-10-31T03:04:21;11.73;;;6.25;;
9108;SDS011;4590;51.462;6.692;2022-10-31T03:07:20;8.88;;;5.95;;
9108;SDS011;4590;51.462;6.692;2022-10-31T03:09:51;10.85;;;6.20;;
9108;SDS011;4590;51.462;6.692;2022-10-31T03:15:45;11.05;;;6.43;;
9108;SDS011;4590;51.462;6.692;2022-10-31T03:21:45;10.82;;;5.85;;
9108;SDS011;4590;51.462;6.692;2022-10-31T03:23:50;9.13;;;5.53;;
9108;SDS011;4590;51.462;6.692;2022-10-31T03:26:17;9.75;;;6.25;;
9108;SDS011;4590;51.462;6.692;2022-10-31T03:28:46;9.40;;;6.18;;
9108;SDS011;4590;51.462;6.692;2022-10-31T03:31:17;10.73;;;5.90;;
9108;SDS011;4590;51.462;6.692;2022-10-31T03:33:44;11.05;;;6.05;;
9108;SDS011;4590;51.462;6.692;2022-10-31T03:36:11;11.65;;;6.93;;
9108;SDS011;4590;51.462;6.692;2022-10-31T03:38:39;13.50;;;6.38;;
9108;SDS011;4590;51.462;6.692;2022-10-31T03:41:09;11.60;;;6.18;;
9108;SDS011;4590;51.462;6.692;2022-10-31T03:43:40;8.73;;;5.90;;
9108;SDS011;4590;51.462;6.692;2022-10-31T03:46:11;14.32;;;5.82;;
9108;SDS011;4590;51.462;6.692;2022-10-31T03:48:37;9.90;;;6.20;;
9108;SDS011;4590;51.462;6.692;2022-10-31T03:51:08;14.43;;;5.85;;
9108;SDS011;4590;51.462;6.692;2022-10-31T03:53:58;12.23;;;5.95;;
9108;SDS011;4590;51.462;6.692;2022-10-31T03:56:36;8.20;;;5.68;;
9108;SDS011;4590;51.462;6.692;2022-10-31T04:01:51;11.52;;;5.60;;
9108;SDS011;4590;51.462;6.692;2022-10-31T04:04:22;9.48;;;5.80;;
9108;SDS011;4590;51.462;6.692;2022-10-31T04:06:49;13.38;;;6.50;;
9108;SDS011;4590;51.462;6.692;2022-10-31T04:09:17;11.13;;;6.65;;
9108;SDS011;4590;51.462;6.692;2022-10-31T04:11:45;13.57;;;6.25;;
9108;SDS011;4590;51.462;6.692;2022-10-31T04:14:15;10.48;;;5.57;;
9108;SDS011;4590;51.462;6.692;2022-10-31T04:16:41;10.93;;;6.17;;
9108;SDS011;4590;51.462;6.692;2022-10-31T04:19:08;10.02;;;6.25;;
9108;SDS011;4590;51.462;6.692;2022-10-31T04:21:33;9.93;;;6.50;;
9108;SDS011;4590;51.462;6.692;2022-10-31T04:23:59;10.60;;;5.93;;
9108;SDS011;4590;51.462;6.692;2022-10-31T04:26:24;10.88;;;6.13;;
9108;SDS011;4590;51.462;6.692;2022-10-31T04:28:50;11.00;;;6.35;;
9108;SDS011;4590;51.462;6.692;2022-10-31T04:31:15;9.83;;;6.47;;
9108;SDS011;4590;51.462;6.692;2022-10-31T04:33:40;8.77;;;5.73;;
9108;SDS011;4590;51.462;6.692;2022-10-31T04:36:06;11.20;;;6.60;;
9108;SDS011;4590;51.462;6.692;2022-10-31T04:38:31;10.52;;;6.10;;
9108;SDS011;4590;51.462;6.692;2022-10-31T04:40:57;12.23;;;5.80;;
9108;SDS011;4590;51.462;6.692;2022-10-31T04:43:22;10.53;;;5.80;;
9108;SDS011;4590;51.462;6.692;2022-10-31T04:45:48;12.30;;;5.55;;
9108;SDS011;4590;51.462;6.692;2022-10-31T04:48:13;9.67;;;5.73;;
9108;SDS011;4590;51.462;6.692;2022-10-31T04:50:38;8.70;;;5.67;;
9108;SDS011;4590;51.462;6.692;2022-10-31T04:53:04;8.40;;;5.60;;
9108;SDS011;4590;51.462;6.692;2022-10-31T04:55:29;11.33;;;5.80;;
9108;SDS011;4590;51.462;6.692;2022-10-31T04:57:54;10.32;;;6.20;;
9108;SDS011;4590;51.462;6.692;2022-10-31T05:00:20;10.40;;;5.63;;
9108;SDS011;4590;51.462;6.692;2022-10-31T05:02:47;10.48;;;6.07;;
9108;SDS011;4590;51.462;6.692;2022-10-31T05:05:15;10.40;;;6.00;;
9108;SDS011;4590;51.462;6.692;2022-10-31T05:07:42;8.65;;;5.88;;
9108;SDS011;4590;51.462;6.692;2022-10-31T05:10:09;11.40;;;6.13;;
9108;SDS011;4590;51.462;6.692;2022-10-31T05:12:37;12.02;;;6.47;;
9108;SDS011;4590;51.462;6.692;2022-10-31T05:15:03;10.60;;;5.80;;
9108;SDS011;4590;51.462;6.692;2022-10-31T05:17:30;8.63;;;6.10;;
9108;SDS011;4590;51.462;6.692;2022-10-31T05:19:56;12.52;;;6.15;;
9108;SDS011;4590;51.462;6.692;2022-10-31T05:22:21;10.50;;;6.27;;
9108;SDS011;4590;51.462;6.692;2022-10-31T05:24:47;9.73;;;5.83;;
9108;SDS011;4590;51.462;6.692;2022-10-31T05:27:12;10.67;;;6.33;;
9108;SDS011;4590;51.462;6.692;2022-10-31T05:29:37;11.00;;;6.00;;
9108;SDS011;4590;51.462;6.692;2022-10-31T05:32:03;16.60;;;7.00;;
9108;SDS011;4590;51.462;6.692;2022-10-31T05:34:28;9.40;;;5.87;;
9108;SDS011;4590;51.462;6.692;2022-10-31T05:36:53;9.43;;;5.80;;
9108;SDS011;4590;51.462;6.692;2022-10-31T05:39:18;10.90;;;5.83;;
9108;SDS011;4590;51.462;6.692;2022-10-31T05:41:44;10.10;;;5.13;;
9108;SDS011;4590;51.462;6.692;2022-10-31T05:44:09;10.37;;;6.07;;
9108;SDS011;4590;51.462;6.692;2022-10-31T05:46:34;9.50;;;6.30;;
9108;SDS011;4590;51.462;6.692;2022-10-31T05:48:59;11.57;;;5.50;;
9108;SDS011;4590;51.462;6.692;2022-10-31T05:51:25;9.17;;;5.73;;
9108;SDS011;4590;51.462;6.692;2022-10-31T05:53:50;10.70;;;6.23;;
9108;SDS011;4590;51.462;6.692;2022-10-31T05:56:15;9.57;;;5.87;;
9108;SDS011;4590;51.462;6.692;2022-10-31T05:58:41;9.30;;;5.40;;
9108;SDS011;4590;51.462;6.692;2022-10-31T06:01:06;11.23;;;5.43;;
9108;SDS011;4590;51.462;6.692;2022-10-31T06:03:31;13.30;;;6.43;;
9108;SDS011;4590;51.462;6.692;2022-10-31T06:05:56;9.80;;;5.37;;
9108;SDS011;4590;51.462;6.692;2022-10-31T06:08:22;9.33;;;5.40;;
9108;SDS011;4590;51.462;6.692;2022-10-31T06:10:47;11.13;;;5.77;;
9108;SDS011;4590;51.462;6.692;2022-10-31T06:13:12;14.07;;;6.00;;
9108;SDS011;4590;51.462;6.692;2022-10-31T06:15:37;10.03;;;6.17;;
9108;SDS011;4590;51.462;6.692;2022-10-31T06:18:04;10.63;;;6.23;;
9108;SDS011;4590;51.462;6.692;2022-10-31T06:20:31;11.32;;;6.95;;
9108;SDS011;4590;51.462;6.692;2022-10-31T06:22:57;11.07;;;5.97;;
9108;SDS011;4590;51.462;6.692;2022-10-31T06:25:23;13.95;;;6.55;;
9108;SDS011;4590;51.462;6.692;2022-10-31T06:27:48;12.05;;;6.65;;
9108;SDS011;4590;51.462;6.692;2022-10-31T06:30:13;11.90;;;7.50;;
9108;SDS011;4590;51.462;6.692;2022-10-31T06:32:39;13.07;;;6.85;;
9108;SDS011;4590;51.462;6.692;2022-10-31T06:35:04;11.80;;;6.37;;
9108;SDS011;4590;51.462;6.692;2022-10-31T06:37:30;13.48;;;7.28;;
9108;SDS011;4590;51.462;6.692;2022-10-31T06:39:55;12.33;;;7.07;;
9108;SDS011;4590;51.462;6.692;2022-10-31T06:42:21;11.67;;;7.50;;
9108;SDS011;4590;51.462;6.692;2022-10-31T06:44:46;10.20;;;6.17;;
9108;SDS011;4590;51.462;6.692;2022-10-31T06:47:11;11.53;;;6.03;;
9108;SDS011;4590;51.462;6.692;2022-10-31T06:49:36;10.60;;;6.07;;
9108;SDS011;4590;51.462;6.692;2022-10-31T06:52:02;10.73;;;6.37;;
9108;SDS011;4590;51.462;6.692;2022-10-31T06:54:27;13.48;;;6.70;;
9108;SDS011;4590;51.462;6.692;2022-10-31T06:56:52;12.40;;;6.43;;
9108;SDS011;4590;51.462;6.692;2022-10-31T06:59:18;11.27;;;6.43;;
9108;SDS011;4590;51.462;6.692;2022-10-31T07:01:43;10.30;;;6.60;;
9108;SDS011;4590;51.462;6.692;2022-10-31T07:04:11;11.13;;;6.30;;
9108;SDS011;4590;51.462;6.692;2022-10-31T07:06:37;10.07;;;6.00;;
9108;SDS011;4590;51.462;6.692;2022-10-31T07:09:02;11.47;;;6.17;;
9108;SDS011;4590;51.462;6.692;2022-10-31T07:11:28;11.38;;;6.63;;
9108;SDS011;4590;51.462;6.692;2022-10-31T07:13:54;13.23;;;6.57;;
9108;SDS011;4590;51.462;6.692;2022-10-31T07:16:19;9.73;;;6.33;;
9108;SDS011;4590;51.462;6.692;2022-10-31T07:18:44;16.73;;;8.47;;
9108;SDS011;4590;51.462;6.692;2022-10-31T07:21:09;12.97;;;7.40;;
9108;SDS011;4590;51.462;6.692;2022-10-31T07:23:35;11.13;;;7.30;;
9108;SDS011;4590;51.462;6.692;2022-10-31T07:26:00;13.00;;;7.07;;
9108;SDS011;4590;51.462;6.692;2022-10-31T07:28:26;12.20;;;8.00;;
9108;SDS011;4590;51.462;6.692;2022-10-31T07:30:52;13.95;;;6.97;;
9108;SDS011;4590;51.462;6.692;2022-10-31T07:33:18;13.57;;;7.07;;
9108;SDS011;4590;51.462;6.692;2022-10-31T07:35:44;14.98;;;7.68;;
9108;SDS011;4590;51.462;6.692;2022-10-31T07:38:10;11.97;;;7.90;;
9108;SDS011;4590;51.462;6.692;2022-10-31T07:40:37;14.10;;;7.35;;
9108;SDS011;4590;51.462;6.692;2022-10-31T07:43:02;17.90;;;7.60;;
9108;SDS011;4590;51.462;6.692;2022-10-31T07:45:28;18.65;;;8.10;;
9108;SDS011;4590;51.462;6.692;2022-10-31T07:47:53;12.83;;;7.40;;
9108;SDS011;4590;51.462;6.692;2022-10-31T07:50:23;13.30;;;7.30;;
9108;SDS011;4590;51.462;6.692;2022-10-31T07:53:00;12.75;;;7.18;;
9108;SDS011;4590;51.462;6.692;2022-10-31T07:55:36;13.13;;;7.88;;
9108;SDS011;4590;51.462;6.692;2022-10-31T08:00:32;12.77;;;6.88;;
9108;SDS011;4590;51.462;6.692;2022-10-31T08:03:06;14.38;;;7.63;;
9108;SDS011;4590;51.462;6.692;2022-10-31T08:05:33;13.48;;;7.25;;
9108;SDS011;4590;51.462;6.692;2022-10-31T08:10:25;16.65;;;7.75;;
9108;SDS011;4590;51.462;6.692;2022-10-31T08:12:55;22.00;;;8.20;;
9108;SDS011;4590;51.462;6.692;2022-10-31T08:15:25;17.95;;;7.95;;
9108;SDS011;4590;51.462;6.692;2022-10-31T08:17:51;16.17;;;8.93;;
9108;SDS011;4590;51.462;6.692;2022-10-31T08:20:16;17.67;;;8.80;;
9108;SDS011;4590;51.462;6.692;2022-10-31T08:22:42;22.63;;;10.02;;
9108;SDS011;4590;51.462;6.692;2022-10-31T08:25:08;16.90;;;9.87;;
9108;SDS011;4590;51.462;6.692;2022-10-31T08:27:33;23.65;;;10.40;;
9108;SDS011;4590;51.462;6.692;2022-10-31T08:29:59;19.10;;;9.87;;
9108;SDS011;4590;51.462;6.692;2022-10-31T08:32:24;26.97;;;10.73;;
9108;SDS011;4590;51.462;6.692;2022-10-31T08:34:49;21.53;;;9.87;;
9108;SDS011;4590;51.462;6.692;2022-10-31T08:37:15;17.30;;;9.23;;
9108;SDS011;4590;51.462;6.692;2022-10-31T08:39:44;18.88;;;9.60;;
9108;SDS011;4590;51.462;6.692;2022-10-31T08:44:36;21.73;;;9.87;;
9108;SDS011;4590;51.462;6.692;2022-10-31T08:47:01;20.60;;;9.53;;
9108;SDS011;4590;51.462;6.692;2022-10-31T08:49:26;17.77;;;10.27;;
9108;SDS011;4590;51.462;6.692;2022-10-31T08:51:51;33.00;;;9.63;;
9108;SDS011;4590;51.462;6.692;2022-10-31T08:54:17;18.70;;;9.40;;
9108;SDS011;4590;51.462;6.692;2022-10-31T08:56:42;25.87;;;10.10;;
9108;SDS011;4590;51.462;6.692;2022-10-31T08:59:07;16.20;;;9.27;;
9108;SDS011;4590;51.462;6.692;2022-10-31T09:01:32;20.60;;;9.93;;
9108;SDS011;4590;51.462;6.692;2022-10-31T09:03:58;17.40;;;9.20;;
9108;SDS011;4590;51.462;6.692;2022-10-31T09:06:23;22.47;;;10.53;;
9108;SDS011;4590;51.462;6.692;2022-10-31T09:08:48;22.43;;;10.40;;
9108;SDS011;4590;51.462;6.692;2022-10-31T09:11:13;20.17;;;10.10;;
9108;SDS011;4590;51.462;6.692;2022-10-31T09:13:39;16.47;;;10.03;;
9108;SDS011;4590;51.462;6.692;2022-10-31T09:16:04;20.07;;;9.93;;
9108;SDS011;4590;51.462;6.692;2022-10-31T09:18:30;17.63;;;9.80;;
9108;SDS011;4590;51.462;6.692;2022-10-31T09:20:57;19.52;;;10.60;;
9108;SDS011;4590;51.462;6.692;2022-10-31T09:23:23;21.52;;;10.93;;
9108;SDS011;4590;51.462;6.692;2022-10-31T09:25:49;20.93;;;10.50;;
9108;SDS011;4590;51.462;6.692;2022-10-31T09:28:17;18.90;;;10.23;;
9108;SDS011;4590;51.462;6.692;2022-10-31T09:30:47;16.17;;;9.65;;
9108;SDS011;4590;51.462;6.692;2022-10-31T09:33:13;18.02;;;9.88;;
9108;SDS011;4590;51.462;6.692;2022-10-31T09:35:39;20.42;;;10.88;;
9108;SDS011;4590;51.462;6.692;2022-10-31T09:38:06;18.88;;;9.52;;
9108;SDS011;4590;51.462;6.692;2022-10-31T09:48:33;16.13;;;9.27;;
9108;SDS011;4590;51.462;6.692;2022-10-31T09:53:48;18.77;;;10.23;;
9108;SDS011;4590;51.462;6.692;2022-10-31T09:56:19;20.27;;;9.68;;
9108;SDS011;4590;51.462;6.692;2022-10-31T09:58:56;16.55;;;9.55;;
9108;SDS011;4590;51.462;6.692;2022-10-31T10:01:37;16.33;;;8.70;;
9108;SDS011;4590;51.462;6.692;2022-10-31T10:09:27;17.60;;;8.93;;
9108;SDS011;4590;51.462;6.692;2022-10-31T10:19:39;19.02;;;9.80;;
9108;SDS011;4590;51.462;6.692;2022-10-31T10:33:35;18.92;;;10.05;;
9108;SDS011;4590;51.462;6.692;2022-10-31T10:35:49;18.60;;;10.10;;
9108;SDS011;4590;51.462;6.692;2022-10-31T10:38:28;21.63;;;10.15;;
9108;SDS011;4590;51.462;6.692;2022-10-31T10:41:00;21.42;;;10.77;;
9108;SDS011;4590;51.462;6.692;2022-10-31T10:43:36;28.02;;;12.23;;
9108;SDS011;4590;51.462;6.692;2022-10-31T10:46:12;23.13;;;12.35;;
9108;SDS011;4590;51.462;6.692;2022-10-31T10:49:04;23.63;;;12.20;;
9108;SDS011;4590;51.462;6.692;2022-10-31T11:02:46;25.15;;;13.23;;
9108;SDS011;4590;51.462;6.692;2022-10-31T11:05:18;22.27;;;13.38;;
9108;SDS011;4590;51.462;6.692;2022-10-31T11:07:45;28.95;;;14.85;;
9108;SDS011;4590;51.462;6.692;2022-10-31T11:10:14;24.37;;;13.83;;
9108;SDS011;4590;51.462;6.692;2022-10-31T11:12:40;24.75;;;14.38;;
9108;SDS011;4590;51.462;6.692;2022-10-31T11:15:15;20.80;;;12.20;;
9108;SDS011;4590;51.462;6.692;2022-10-31T11:17:48;23.55;;;12.25;;
9108;SDS011;4590;51.462;6.692;2022-10-31T11:22:45;22.63;;;11.50;;
9108;SDS011;4590;51.462;6.692;2022-10-31T11:28:00;23.92;;;12.00;;
9108;SDS011;4590;51.462;6.692;2022-10-31T11:30:31;24.95;;;12.57;;
9108;SDS011;4590;51.462;6.692;2022-10-31T11:33:11;26.45;;;14.77;;
9108;SDS011;4590;51.462;6.692;2022-10-31T11:36:00;23.13;;;12.52;;
9108;SDS011;4590;51.462;6.692;2022-10-31T11:38:31;23.33;;;12.48;;
9108;SDS011;4590;51.462;6.692;2022-10-31T11:41:04;25.15;;;13.25;;
9108;SDS011;4590;51.462;6.692;2022-10-31T11:43:33;24.27;;;12.55;;
9108;SDS011;4590;51.462;6.692;2022-10-31T11:45:58;20.33;;;11.13;;
9108;SDS011;4590;51.462;6.692;2022-10-31T11:48:24;19.48;;;10.73;;
9108;SDS011;4590;51.462;6.692;2022-10-31T11:50:56;24.23;;;10.75;;
9108;SDS011;4590;51.462;6.692;2022-10-31T11:53:27;26.10;;;11.23;;
9108;SDS011;4590;51.462;6.692;2022-10-31T11:56:28;19.02;;;10.52;;
9108;SDS011;4590;51.462;6.692;2022-10-31T11:59:03;21.95;;;11.30;;
9108;SDS011;4590;51.462;6.692;2022-10-31T12:01:31;23.63;;;10.65;;
9108;SDS011;4590;51.462;6.692;2022-10-31T12:04:07;22.83;;;11.10;;
9108;SDS011;4590;51.462;6.692;2022-10-31T12:06:40;21.80;;;10.93;;
9108;SDS011;4590;51.462;6.692;2022-10-31T12:09:40;18.08;;;10.85;;
9108;SDS011;4590;51.462;6.692;2022-10-31T12:12:05;20.83;;;10.15;;
9108;SDS011;4590;51.462;6.692;2022-10-31T12:15:04;18.98;;;10.52;;
9108;SDS011;4590;51.462;6.692;2022-10-31T12:17:53;25.40;;;10.25;;
9108;SDS011;4590;51.462;6.692;2022-10-31T12:25:29;20.83;;;10.30;;
9108;SDS011;4590;51.462;6.692;2022-10-31T12:44:51;16.45;;;8.65;;
9108;SDS011;4590;51.462;6.692;2022-10-31T12:52:56;18.50;;;8.63;;
9108;SDS011;4590;51.462;6.692;2022-10-31T12:58:21;17.67;;;8.20;;
9108;SDS011;4590;51.462;6.692;2022-10-31T13:01:02;14.50;;;7.47;;
9108;SDS011;4590;51.462;6.692;2022-10-31T13:03:35;15.85;;;8.52;;
9108;SDS011;4590;51.462;6.692;2022-10-31T13:06:19;13.20;;;7.68;;
9108;SDS011;4590;51.462;6.692;2022-10-31T13:08:57;14.15;;;6.38;;
9108;SDS011;4590;51.462;6.692;2022-10-31T13:11:27;14.52;;;6.55;;
9108;SDS011;4590;51.462;6.692;2022-10-31T13:14:00;14.88;;;7.13;;
9108;SDS011;4590;51.462;6.692;2022-10-31T13:16:33;18.13;;;7.70;;
9108;SDS011;4590;51.462;6.692;2022-10-31T13:24:44;14.23;;;5.82;;
9108;SDS011;4590;51.462;6.692;2022-10-31T13:27:21;14.27;;;6.80;;
9108;SDS011;4590;51.462;6.692;2022-10-31T13:30:00;12.38;;;6.25;;
9108;SDS011;4590;51.462;6.692;2022-10-31T13:32:37;12.80;;;7.05;;
9108;SDS011;4590;51.462;6.692;2022-10-31T13:35:29;15.32;;;6.50;;
9108;SDS011;4590;51.462;6.692;2022-10-31T13:38:02;9.43;;;5.78;;
9108;SDS011;4590;51.462;6.692;2022-10-31T13:46:01;14.35;;;6.32;;
9108;SDS011;4590;51.462;6.692;2022-10-31T13:48:33;12.48;;;5.53;;
9108;SDS011;4590;51.462;6.692;2022-10-31T13:51:01;12.32;;;6.28;;
9108;SDS011;4590;51.462;6.692;2022-10-31T13:58:57;12.20;;;5.03;;
9108;SDS011;4590;51.462;6.692;2022-10-31T14:01:47;10.80;;;5.82;;
9108;SDS011;4590;51.462;6.692;2022-10-31T14:04:16;11.10;;;4.30;;
9108;SDS011;4590;51.462;6.692;2022-10-31T14:06:54;8.95;;;4.30;;
9108;SDS011;4590;51.462;6.692;2022-10-31T14:09:27;7.68;;;4.05;;
9108;SDS011;4590;51.462;6.692;2022-10-31T14:11:56;8.98;;;3.65;;
9108;SDS011;4590;51.462;6.692;2022-10-31T14:17:16;8.93;;;3.00;;
9108;SDS011;4590;51.462;6.692;2022-10-31T14:19:55;9.52;;;3.03;;
9108;SDS011;4590;51.462;6.692;2022-10-31T14:22:23;7.70;;;2.90;;
9108;SDS011;4590;51.462;6.692;2022-10-31T14:24:54;5.18;;;2.63;;
9108;SDS011;4590;51.462;6.692;2022-10-31T14:34:40;7.07;;;3.10;;
9108;SDS011;4590;51.462;6.692;2022-10-31T14:51:10;6.40;;;2.53;;
9108;SDS011;4590;51.462;6.692;2022-10-31T14:53:43;5.40;;;1.98;;
9108;SDS011;4590;51.462;6.692;2022-10-31T14:56:25;5.15;;;2.28;;
9108;SDS011;4590;51.462;6.692;2022-10-31T14:58:52;8.55;;;2.88;;
9108;SDS011;4590;51.462;6.692;2022-10-31T15:03:53;8.93;;;2.20;;
9108;SDS011;4590;51.462;6.692;2022-10-31T15:06:42;7.13;;;2.78;;
9108;SDS011;4590;51.462;6.692;2022-10-31T15:09:20;11.07;;;2.60;;
9108;SDS011;4590;51.462;6.692;2022-10-31T15:11:47;7.15;;;2.63;;
9108;SDS011;4590;51.462;6.692;2022-10-31T15:14:22;7.33;;;2.63;;
9108;SDS011;4590;51.462;6.692;2022-10-31T15:16:53;9.95;;;2.97;;
9108;SDS011;4590;51.462;6.692;2022-10-31T15:19:22;14.77;;;3.28;;
9108;SDS011;4590;51.462;6.692;2022-10-31T15:21:51;11.55;;;2.75;;
9108;SDS011;4590;51.462;6.692;2022-10-31T15:24:19;8.00;;;2.83;;
9108;SDS011;4590;51.462;6.692;2022-10-31T15:26:47;7.55;;;2.80;;
9108;SDS011;4590;51.462;6.692;2022-10-31T15:29:16;7.43;;;2.90;;
9108;SDS011;4590;51.462;6.692;2022-10-31T15:31:50;8.18;;;2.75;;
9108;SDS011;4590;51.462;6.692;2022-10-31T15:34:32;7.30;;;2.35;;
9108;SDS011;4590;51.462;6.692;2022-10-31T15:37:03;9.32;;;2.80;;
9108;SDS011;4590;51.462;6.692;2022-10-31T15:39:28;5.78;;;2.65;;
9108;SDS011;4590;51.462;6.692;2022-10-31T15:41:55;8.20;;;2.58;;
9108;SDS011;4590;51.462;6.692;2022-10-31T15:44:24;11.75;;;2.60;;
9108;SDS011;4590;51.462;6.692;2022-10-31T15:46:56;10.02;;;3.08;;
9108;SDS011;4590;51.462;6.692;2022-10-31T15:49:28;6.63;;;2.60;;
9108;SDS011;4590;51.462;6.692;2022-10-31T15:52:03;5.03;;;2.42;;
9108;SDS011;4590;51.462;6.692;2022-10-31T15:54:46;6.15;;;2.47;;
9108;SDS011;4590;51.462;6.692;2022-10-31T15:57:14;6.85;;;2.30;;
9108;SDS011;4590;51.462;6.692;2022-10-31T15:59:41;6.97;;;2.75;;
9108;SDS011;4590;51.462;6.692;2022-10-31T16:02:10;11.00;;;3.47;;
9108;SDS011;4590;51.462;6.692;2022-10-31T16:04:37;10.45;;;3.72;;
9108;SDS011;4590;51.462;6.692;2022-10-31T16:07:17;9.45;;;2.83;;
9108;SDS011;4590;51.462;6.692;2022-10-31T16:10:00;9.50;;;3.08;;
9108;SDS011;4590;51.462;6.692;2022-10-31T16:12:36;8.95;;;2.80;;
9108;SDS011;4590;51.462;6.692;2022-10-31T16:15:13;7.22;;;3.85;;
9108;SDS011;4590;51.462;6.692;2022-10-31T16:17:40;8.52;;;2.78;;
9108;SDS011;4590;51.462;6.692;2022-10-31T16:20:16;7.57;;;2.75;;
9108;SDS011;4590;51.462;6.692;2022-10-31T16:22:47;7.47;;;2.70;;
9108;SDS011;4590;51.462;6.692;2022-10-31T16:25:15;10.02;;;2.60;;
9108;SDS011;4590;51.462;6.692;2022-10-31T16:27:49;7.63;;;2.85;;
9108;SDS011;4590;51.462;6.692;2022-10-31T16:33:03;6.18;;;2.53;;
9108;SDS011;4590;51.462;6.692;2022-10-31T16:35:36;7.28;;;2.45;;
9108;SDS011;4590;51.462;6.692;2022-10-31T16:38:03;6.53;;;3.00;;
9108;SDS011;4590;51.462;6.692;2022-10-31T16:40:30;7.00;;;2.63;;
9108;SDS011;4590;51.462;6.692;2022-10-31T16:42:56;6.38;;;2.58;;
9108;SDS011;4590;51.462;6.692;2022-10-31T16:45:24;6.10;;;2.90;;
9108;SDS011;4590;51.462;6.692;2022-10-31T16:47:51;7.18;;;2.72;;
9108;SDS011;4590;51.462;6.692;2022-10-31T16:52:48;8.18;;;4.00;;
9108;SDS011;4590;51.462;6.692;2022-10-31T16:55:14;8.68;;;2.97;;
9108;SDS011;4590;51.462;6.692;2022-10-31T16:57:42;7.63;;;3.20;;
9108;SDS011;4590;51.462;6.692;2022-10-31T17:00:13;10.63;;;3.08;;
9108;SDS011;4590;51.462;6.692;2022-10-31T17:02:40;7.70;;;3.33;;
9108;SDS011;4590;51.462;6.692;2022-10-31T17:05:08;7.53;;;3.50;;
9108;SDS011;4590;51.462;6.692;2022-10-31T17:07:36;9.23;;;3.40;;
9108;SDS011;4590;51.462;6.692;2022-10-31T17:10:01;9.17;;;3.43;;
9108;SDS011;4590;51.462;6.692;2022-10-31T17:12:27;11.15;;;3.70;;
9108;SDS011;4590;51.462;6.692;2022-10-31T17:14:52;8.18;;;3.75;;
9108;SDS011;4590;51.462;6.692;2022-10-31T17:17:17;7.83;;;3.63;;
9108;SDS011;4590;51.462;6.692;2022-10-31T17:19:43;9.85;;;3.50;;
9108;SDS011;4590;51.462;6.692;2022-10-31T17:22:12;7.60;;;3.13;;
9108;SDS011;4590;51.462;6.692;2022-10-31T17:24:38;5.32;;;3.20;;
9108;SDS011;4590;51.462;6.692;2022-10-31T17:27:03;7.40;;;3.20;;
9108;SDS011;4590;51.462;6.692;2022-10-31T17:29:29;8.50;;;3.40;;
9108;SDS011;4590;51.462;6.692;2022-10-31T17:31:54;9.05;;;3.20;;
9108;SDS011;4590;51.462;6.692;2022-10-31T17:34:19;7.57;;;2.87;;
9108;SDS011;4590;51.462;6.692;2022-10-31T17:36:48;8.63;;;3.20;;
9108;SDS011;4590;51.462;6.692;2022-10-31T17:39:15;8.95;;;3.85;;
9108;SDS011;4590;51.462;6.692;2022-10-31T17:41:40;8.23;;;3.30;;
9108;SDS011;4590;51.462;6.692;2022-10-31T17:44:08;5.97;;;3.00;;
9108;SDS011;4590;51.462;6.692;2022-10-31T17:46:34;7.88;;;3.67;;
9108;SDS011;4590;51.462;6.692;2022-10-31T17:48:59;9.00;;;4.13;;
9108;SDS011;4590;51.462;6.692;2022-10-31T17:51:25;7.38;;;3.50;;
9108;SDS011;4590;51.462;6.692;2022-10-31T17:53:51;6.57;;;3.00;;
9108;SDS011;4590;51.462;6.692;2022-10-31T17:56:16;8.70;;;3.10;;